sensor_id;sensor_type;location;lat;lon;timestamp;P1;durP1;ratioP1;P2;durP2;ratioP2
20802;SDS011;10562;-33.856;151.182;2023-05-14T00:00:31;23.30;;;21.15;;
20802;SDS011;10562;-33.856;151.182;2023-05-14T00:03:02;23.55;;;21.23;;
20802;SDS011;10562;-33.856;151.182;2023-05-14T00:05:33;25.10;;;22.80;;
20802;SDS011;10562;-33.856;151.182;2023-05-14T00:08:04;23.02;;;20.90;;
20802;SDS011;10562;-33.856;151.182;2023-05-14T00:10:37;23.73;;;21.70;;
20802;SDS011;10562;-33.856;151.182;2023-05-14T00:13:08;22.45;;;20.33;;
20802;SDS011;10562;-33.856;151.182;2023-05-14T00:15:38;22.40;;;20.17;;
20802;SDS011;10562;-33.856;151.182;2023-05-14T00:18:09;22.48;;;20.55;;
20802;SDS011;10562;-33.856;151.182;2023-05-14T00:20:40;20.17;;;17.92;;
20802;SDS011;10562;-33.856;151.182;2023-05-14T00:23:11;18.42;;;16.80;;
20802;SDS011;10562;-33.856;151.182;2023-05-14T00:25:44;22.83;;;20.73;;
20802;SDS011;10562;-33.856;151.182;2023-05-14T00:28:15;18.15;;;16.60;;
20802;SDS011;10562;-33.856;151.182;2023-05-14T00:30:46;16.30;;;14.82;;
20802;SDS011;10562;-33.856;151.182;2023-05-14T00:33:16;17.35;;;15.65;;
20802;SDS011;10562;-33.856;151.182;2023-05-14T00:35:47;16.08;;;14.68;;
20802;SDS011;10562;-33.856;151.182;2023-05-14T00:38:18;15.02;;;13.73;;
20802;SDS011;10562;-33.856;151.182;2023-05-14T00:40:54;14.35;;;13.05;;
20802;SDS011;10562;-33.856;151.182;2023-05-14T00:43:25;13.32;;;12.13;;
20802;SDS011;10562;-33.856;151.182;2023-05-14T00:45:57;13.38;;;12.27;;
20802;SDS011;10562;-33.856;151.182;2023-05-14T00:48:28;12.85;;;11.55;;
20802;SDS011;10562;-33.856;151.182;2023-05-14T00:50:59;12.20;;;11.15;;
20802;SDS011;10562;-33.856;151.182;2023-05-14T00:53:30;12.43;;;11.43;;
20802;SDS011;10562;-33.856;151.182;2023-05-14T00:56:03;12.07;;;10.98;;
20802;SDS011;10562;-33.856;151.182;2023-05-14T00:58:35;12.38;;;11.25;;
20802;SDS011;10562;-33.856;151.182;2023-05-14T01:01:06;11.45;;;10.45;;
20802;SDS011;10562;-33.856;151.182;2023-05-14T01:03:40;12.60;;;11.50;;
20802;SDS011;10562;-33.856;151.182;2023-05-14T01:06:12;11.48;;;10.35;;
20802;SDS011;10562;-33.856;151.182;2023-05-14T01:09:00;9.85;;;9.05;;
20802;SDS011;10562;-33.856;151.182;2023-05-14T01:11:38;9.18;;;8.40;;
20802;SDS011;10562;-33.856;151.182;2023-05-14T01:14:19;10.27;;;8.57;;
20802;SDS011;10562;-33.856;151.182;2023-05-14T01:16:54;7.85;;;7.07;;
20802;SDS011;10562;-33.856;151.182;2023-05-14T01:19:31;7.55;;;6.70;;
20802;SDS011;10562;-33.856;151.182;2023-05-14T01:22:07;8.93;;;6.47;;
20802;SDS011;10562;-33.856;151.182;2023-05-14T01:24:38;6.97;;;6.18;;
20802;SDS011;10562;-33.856;151.182;2023-05-14T01:27:11;7.18;;;6.07;;
20802;SDS011;10562;-33.856;151.182;2023-05-14T01:29:47;9.57;;;6.95;;
20802;SDS011;10562;-33.856;151.182;2023-05-14T01:32:24;8.15;;;6.30;;
20802;SDS011;10562;-33.856;151.182;2023-05-14T01:34:57;7.80;;;4.95;;
20802;SDS011;10562;-33.856;151.182;2023-05-14T01:37:32;7.18;;;4.40;;
20802;SDS011;10562;-33.856;151.182;2023-05-14T01:40:06;7.75;;;4.05;;
20802;SDS011;10562;-33.856;151.182;2023-05-14T01:42:38;12.20;;;5.00;;
20802;SDS011;10562;-33.856;151.182;2023-05-14T01:45:09;7.03;;;3.45;;
20802;SDS011;10562;-33.856;151.182;2023-05-14T01:47:40;7.97;;;3.47;;
20802;SDS011;10562;-33.856;151.182;2023-05-14T01:50:11;8.00;;;3.70;;
20802;SDS011;10562;-33.856;151.182;2023-05-14T01:52:43;4.85;;;3.13;;
20802;SDS011;10562;-33.856;151.182;2023-05-14T01:55:16;5.53;;;2.50;;
20802;SDS011;10562;-33.856;151.182;2023-05-14T01:57:47;4.30;;;2.40;;
20802;SDS011;10562;-33.856;151.182;2023-05-14T02:00:18;5.45;;;2.70;;
20802;SDS011;10562;-33.856;151.182;2023-05-14T02:02:49;4.65;;;2.38;;
20802;SDS011;10562;-33.856;151.182;2023-05-14T02:05:20;6.45;;;2.50;;
20802;SDS011;10562;-33.856;151.182;2023-05-14T02:07:53;5.32;;;2.67;;
20802;SDS011;10562;-33.856;151.182;2023-05-14T02:10:24;7.00;;;2.90;;
20802;SDS011;10562;-33.856;151.182;2023-05-14T02:12:55;5.85;;;2.72;;
20802;SDS011;10562;-33.856;151.182;2023-05-14T02:15:26;6.53;;;3.17;;
20802;SDS011;10562;-33.856;151.182;2023-05-14T02:17:56;8.48;;;3.40;;
20802;SDS011;10562;-33.856;151.182;2023-05-14T02:20:27;10.27;;;4.70;;
20802;SDS011;10562;-33.856;151.182;2023-05-14T02:23:00;11.93;;;4.70;;
20802;SDS011;10562;-33.856;151.182;2023-05-14T02:25:30;8.02;;;4.78;;
20802;SDS011;10562;-33.856;151.182;2023-05-14T02:28:01;6.25;;;4.82;;
20802;SDS011;10562;-33.856;151.182;2023-05-14T02:30:32;7.10;;;5.30;;
20802;SDS011;10562;-33.856;151.182;2023-05-14T02:33:03;7.53;;;6.10;;
20802;SDS011;10562;-33.856;151.182;2023-05-14T02:35:34;10.23;;;5.88;;
20802;SDS011;10562;-33.856;151.182;2023-05-14T02:38:06;10.27;;;6.82;;
20802;SDS011;10562;-33.856;151.182;2023-05-14T02:40:37;9.07;;;7.63;;
20802;SDS011;10562;-33.856;151.182;2023-05-14T02:43:08;8.20;;;7.03;;
20802;SDS011;10562;-33.856;151.182;2023-05-14T02:45:39;9.48;;;8.05;;
20802;SDS011;10562;-33.856;151.182;2023-05-14T02:48:09;7.13;;;6.40;;
20802;SDS011;10562;-33.856;151.182;2023-05-14T02:50:43;10.77;;;7.05;;
20802;SDS011;10562;-33.856;151.182;2023-05-14T02:53:16;8.27;;;7.32;;
20802;SDS011;10562;-33.856;151.182;2023-05-14T02:55:47;8.00;;;6.05;;
20802;SDS011;10562;-33.856;151.182;2023-05-14T02:58:17;6.25;;;5.68;;
20802;SDS011;10562;-33.856;151.182;2023-05-14T03:00:48;6.38;;;5.70;;
20802;SDS011;10562;-33.856;151.182;2023-05-14T03:03:19;6.35;;;5.72;;
20802;SDS011;10562;-33.856;151.182;2023-05-14T03:05:50;5.43;;;4.63;;
20802;SDS011;10562;-33.856;151.182;2023-05-14T03:08:22;6.82;;;3.50;;
20802;SDS011;10562;-33.856;151.182;2023-05-14T03:10:53;8.88;;;4.10;;
20802;SDS011;10562;-33.856;151.182;2023-05-14T03:13:24;5.95;;;4.97;;
20802;SDS011;10562;-33.856;151.182;2023-05-14T03:15:55;5.45;;;4.22;;
20802;SDS011;10562;-33.856;151.182;2023-05-14T03:18:25;8.30;;;4.70;;
20802;SDS011;10562;-33.856;151.182;2023-05-14T03:20:56;7.00;;;4.10;;
20802;SDS011;10562;-33.856;151.182;2023-05-14T03:23:29;5.90;;;4.03;;
20802;SDS011;10562;-33.856;151.182;2023-05-14T03:26:00;5.43;;;3.92;;
20802;SDS011;10562;-33.856;151.182;2023-05-14T03:28:31;10.90;;;5.53;;
20802;SDS011;10562;-33.856;151.182;2023-05-14T03:31:01;8.73;;;5.00;;
20802;SDS011;10562;-33.856;151.182;2023-05-14T03:33:32;7.43;;;3.90;;
20802;SDS011;10562;-33.856;151.182;2023-05-14T03:36:03;7.07;;;4.00;;
20802;SDS011;10562;-33.856;151.182;2023-05-14T03:38:36;12.07;;;7.78;;
20802;SDS011;10562;-33.856;151.182;2023-05-14T03:41:06;12.10;;;8.68;;
20802;SDS011;10562;-33.856;151.182;2023-05-14T03:43:37;15.75;;;11.90;;
20802;SDS011;10562;-33.856;151.182;2023-05-14T03:46:08;8.82;;;5.82;;
20802;SDS011;10562;-33.856;151.182;2023-05-14T03:48:39;8.00;;;5.65;;
20802;SDS011;10562;-33.856;151.182;2023-05-14T03:51:09;9.18;;;5.45;;
20802;SDS011;10562;-33.856;151.182;2023-05-14T03:53:42;8.35;;;5.43;;
20802;SDS011;10562;-33.856;151.182;2023-05-14T03:56:13;8.27;;;5.82;;
20802;SDS011;10562;-33.856;151.182;2023-05-14T03:58:44;7.47;;;5.63;;
20802;SDS011;10562;-33.856;151.182;2023-05-14T04:01:15;8.45;;;6.10;;
20802;SDS011;10562;-33.856;151.182;2023-05-14T04:03:45;8.27;;;5.55;;
20802;SDS011;10562;-33.856;151.182;2023-05-14T04:06:16;13.30;;;6.53;;
20802;SDS011;10562;-33.856;151.182;2023-05-14T04:08:49;6.45;;;4.68;;
20802;SDS011;10562;-33.856;151.182;2023-05-14T04:11:19;13.75;;;6.93;;
20802;SDS011;10562;-33.856;151.182;2023-05-14T04:13:50;9.35;;;5.40;;
20802;SDS011;10562;-33.856;151.182;2023-05-14T04:16:21;8.95;;;5.70;;
20802;SDS011;10562;-33.856;151.182;2023-05-14T04:18:52;9.45;;;5.93;;
20802;SDS011;10562;-33.856;151.182;2023-05-14T04:21:22;9.68;;;7.22;;
20802;SDS011;10562;-33.856;151.182;2023-05-14T04:23:55;8.02;;;6.63;;
20802;SDS011;10562;-33.856;151.182;2023-05-14T04:26:26;8.63;;;7.38;;
20802;SDS011;10562;-33.856;151.182;2023-05-14T04:28:57;10.63;;;8.23;;
20802;SDS011;10562;-33.856;151.182;2023-05-14T04:31:28;15.73;;;10.82;;
20802;SDS011;10562;-33.856;151.182;2023-05-14T04:33:59;12.73;;;8.55;;
20802;SDS011;10562;-33.856;151.182;2023-05-14T04:36:30;8.77;;;7.88;;
20802;SDS011;10562;-33.856;151.182;2023-05-14T04:39:02;6.25;;;5.75;;
20802;SDS011;10562;-33.856;151.182;2023-05-14T04:41:34;10.73;;;7.10;;
20802;SDS011;10562;-33.856;151.182;2023-05-14T04:44:05;7.97;;;5.78;;
20802;SDS011;10562;-33.856;151.182;2023-05-14T04:46:36;6.60;;;5.53;;
20802;SDS011;10562;-33.856;151.182;2023-05-14T04:49:06;5.78;;;5.15;;
20802;SDS011;10562;-33.856;151.182;2023-05-14T04:51:37;6.35;;;5.75;;
20802;SDS011;10562;-33.856;151.182;2023-05-14T04:54:10;8.00;;;6.03;;
20802;SDS011;10562;-33.856;151.182;2023-05-14T04:56:41;10.82;;;6.00;;
20802;SDS011;10562;-33.856;151.182;2023-05-14T04:59:12;7.93;;;5.38;;
20802;SDS011;10562;-33.856;151.182;2023-05-14T05:01:44;9.32;;;5.28;;
20802;SDS011;10562;-33.856;151.182;2023-05-14T05:04:15;4.43;;;3.92;;
20802;SDS011;10562;-33.856;151.182;2023-05-14T05:06:46;8.57;;;4.00;;
20802;SDS011;10562;-33.856;151.182;2023-05-14T05:09:21;5.78;;;3.40;;
20802;SDS011;10562;-33.856;151.182;2023-05-14T05:11:53;7.60;;;2.83;;
20802;SDS011;10562;-33.856;151.182;2023-05-14T05:14:23;6.00;;;2.85;;
20802;SDS011;10562;-33.856;151.182;2023-05-14T05:16:54;5.45;;;2.63;;
20802;SDS011;10562;-33.856;151.182;2023-05-14T05:19:25;4.25;;;2.33;;
20802;SDS011;10562;-33.856;151.182;2023-05-14T05:21:56;5.40;;;2.78;;
20802;SDS011;10562;-33.856;151.182;2023-05-14T05:24:28;5.28;;;3.15;;
20802;SDS011;10562;-33.856;151.182;2023-05-14T05:26:59;6.50;;;2.90;;
20802;SDS011;10562;-33.856;151.182;2023-05-14T05:29:30;5.45;;;2.80;;
20802;SDS011;10562;-33.856;151.182;2023-05-14T05:32:01;5.60;;;2.45;;
20802;SDS011;10562;-33.856;151.182;2023-05-14T05:34:32;4.93;;;2.90;;
20802;SDS011;10562;-33.856;151.182;2023-05-14T05:37:03;5.95;;;3.17;;
20802;SDS011;10562;-33.856;151.182;2023-05-14T05:39:39;3.88;;;3.00;;
20802;SDS011;10562;-33.856;151.182;2023-05-14T05:42:10;5.95;;;2.70;;
20802;SDS011;10562;-33.856;151.182;2023-05-14T05:44:41;6.07;;;2.85;;
20802;SDS011;10562;-33.856;151.182;2023-05-14T05:47:12;4.43;;;3.28;;
20802;SDS011;10562;-33.856;151.182;2023-05-14T05:49:43;7.78;;;4.38;;
20802;SDS011;10562;-33.856;151.182;2023-05-14T05:52:14;5.05;;;4.25;;
20802;SDS011;10562;-33.856;151.182;2023-05-14T05:54:46;7.82;;;4.30;;
20802;SDS011;10562;-33.856;151.182;2023-05-14T05:57:17;4.95;;;3.47;;
20802;SDS011;10562;-33.856;151.182;2023-05-14T05:59:49;5.93;;;3.25;;
20802;SDS011;10562;-33.856;151.182;2023-05-14T06:02:20;5.47;;;2.95;;
20802;SDS011;10562;-33.856;151.182;2023-05-14T06:04:51;4.38;;;2.95;;
20802;SDS011;10562;-33.856;151.182;2023-05-14T06:07:22;3.80;;;2.40;;
20802;SDS011;10562;-33.856;151.182;2023-05-14T06:09:55;3.50;;;2.33;;
20802;SDS011;10562;-33.856;151.182;2023-05-14T06:12:25;5.50;;;2.47;;
20802;SDS011;10562;-33.856;151.182;2023-05-14T06:14:56;3.88;;;2.45;;
20802;SDS011;10562;-33.856;151.182;2023-05-14T06:17:27;4.10;;;2.08;;
20802;SDS011;10562;-33.856;151.182;2023-05-14T06:19:58;2.60;;;2.13;;
20802;SDS011;10562;-33.856;151.182;2023-05-14T06:22:30;3.30;;;2.40;;
20802;SDS011;10562;-33.856;151.182;2023-05-14T06:25:03;5.32;;;2.22;;
20802;SDS011;10562;-33.856;151.182;2023-05-14T06:27:34;3.40;;;2.10;;
20802;SDS011;10562;-33.856;151.182;2023-05-14T06:30:05;5.53;;;2.55;;
20802;SDS011;10562;-33.856;151.182;2023-05-14T06:32:37;3.17;;;2.15;;
20802;SDS011;10562;-33.856;151.182;2023-05-14T06:35:08;5.10;;;2.33;;
20802;SDS011;10562;-33.856;151.182;2023-05-14T06:37:39;3.17;;;2.00;;
20802;SDS011;10562;-33.856;151.182;2023-05-14T06:40:12;3.70;;;2.35;;
20802;SDS011;10562;-33.856;151.182;2023-05-14T06:42:43;2.53;;;2.00;;
20802;SDS011;10562;-33.856;151.182;2023-05-14T06:45:14;5.50;;;2.30;;
20802;SDS011;10562;-33.856;151.182;2023-05-14T06:47:45;3.13;;;2.10;;
20802;SDS011;10562;-33.856;151.182;2023-05-14T06:50:15;2.47;;;2.25;;
20802;SDS011;10562;-33.856;151.182;2023-05-14T06:52:46;4.20;;;2.42;;
20802;SDS011;10562;-33.856;151.182;2023-05-14T06:55:19;3.08;;;2.53;;
20802;SDS011;10562;-33.856;151.182;2023-05-14T06:57:50;3.13;;;2.47;;
20802;SDS011;10562;-33.856;151.182;2023-05-14T07:00:21;4.20;;;2.80;;
20802;SDS011;10562;-33.856;151.182;2023-05-14T07:02:52;4.05;;;3.28;;
20802;SDS011;10562;-33.856;151.182;2023-05-14T07:05:23;4.90;;;3.75;;
20802;SDS011;10562;-33.856;151.182;2023-05-14T07:07:54;5.15;;;4.40;;
20802;SDS011;10562;-33.856;151.182;2023-05-14T07:10:27;5.22;;;4.55;;
20802;SDS011;10562;-33.856;151.182;2023-05-14T07:12:58;14.35;;;7.63;;
20802;SDS011;10562;-33.856;151.182;2023-05-14T07:15:29;6.00;;;4.90;;
20802;SDS011;10562;-33.856;151.182;2023-05-14T07:18:00;7.25;;;6.03;;
20802;SDS011;10562;-33.856;151.182;2023-05-14T07:20:30;6.88;;;6.22;;
20802;SDS011;10562;-33.856;151.182;2023-05-14T07:23:01;8.10;;;7.30;;
20802;SDS011;10562;-33.856;151.182;2023-05-14T07:25:34;9.30;;;8.40;;
20802;SDS011;10562;-33.856;151.182;2023-05-14T07:28:04;10.65;;;9.52;;
20802;SDS011;10562;-33.856;151.182;2023-05-14T07:30:35;9.40;;;8.48;;
20802;SDS011;10562;-33.856;151.182;2023-05-14T07:33:06;13.43;;;9.43;;
20802;SDS011;10562;-33.856;151.182;2023-05-14T07:35:37;10.65;;;9.55;;
20802;SDS011;10562;-33.856;151.182;2023-05-14T07:38:08;12.38;;;11.18;;
20802;SDS011;10562;-33.856;151.182;2023-05-14T07:40:40;13.93;;;12.70;;
20802;SDS011;10562;-33.856;151.182;2023-05-14T07:43:11;14.13;;;12.88;;
20802;SDS011;10562;-33.856;151.182;2023-05-14T07:45:42;16.88;;;15.32;;
20802;SDS011;10562;-33.856;151.182;2023-05-14T07:48:13;17.00;;;15.60;;
20802;SDS011;10562;-33.856;151.182;2023-05-14T07:50:43;17.83;;;16.30;;
20802;SDS011;10562;-33.856;151.182;2023-05-14T07:53:14;16.23;;;14.93;;
20802;SDS011;10562;-33.856;151.182;2023-05-14T07:55:47;19.05;;;17.42;;
20802;SDS011;10562;-33.856;151.182;2023-05-14T07:58:18;20.58;;;18.70;;
20802;SDS011;10562;-33.856;151.182;2023-05-14T08:00:50;22.70;;;20.63;;
20802;SDS011;10562;-33.856;151.182;2023-05-14T08:03:21;23.20;;;21.10;;
20802;SDS011;10562;-33.856;151.182;2023-05-14T08:05:52;22.98;;;20.80;;
20802;SDS011;10562;-33.856;151.182;2023-05-14T08:08:23;26.67;;;24.25;;
20802;SDS011;10562;-33.856;151.182;2023-05-14T08:10:56;29.48;;;26.77;;
20802;SDS011;10562;-33.856;151.182;2023-05-14T08:13:28;28.10;;;25.50;;
20802;SDS011;10562;-33.856;151.182;2023-05-14T08:15:58;27.98;;;25.35;;
20802;SDS011;10562;-33.856;151.182;2023-05-14T08:18:29;26.83;;;24.50;;
20802;SDS011;10562;-33.856;151.182;2023-05-14T08:21:00;28.73;;;26.27;;
20802;SDS011;10562;-33.856;151.182;2023-05-14T08:23:31;31.95;;;29.25;;
20802;SDS011;10562;-33.856;151.182;2023-05-14T08:26:03;31.17;;;28.42;;
20802;SDS011;10562;-33.856;151.182;2023-05-14T08:28:34;33.88;;;31.20;;
20802;SDS011;10562;-33.856;151.182;2023-05-14T08:31:05;38.95;;;35.67;;
20802;SDS011;10562;-33.856;151.182;2023-05-14T08:33:36;39.33;;;36.03;;
20802;SDS011;10562;-33.856;151.182;2023-05-14T08:36:07;46.78;;;42.72;;
20802;SDS011;10562;-33.856;151.182;2023-05-14T08:38:38;50.28;;;45.97;;
20802;SDS011;10562;-33.856;151.182;2023-05-14T08:41:11;50.33;;;45.97;;
20802;SDS011;10562;-33.856;151.182;2023-05-14T08:43:43;51.75;;;47.65;;
20802;SDS011;10562;-33.856;151.182;2023-05-14T08:46:20;54.67;;;50.38;;
20802;SDS011;10562;-33.856;151.182;2023-05-14T08:48:56;63.22;;;58.33;;
20802;SDS011;10562;-33.856;151.182;2023-05-14T08:51:34;57.47;;;52.70;;
20802;SDS011;10562;-33.856;151.182;2023-05-14T08:54:05;59.10;;;54.25;;
20802;SDS011;10562;-33.856;151.182;2023-05-14T08:56:41;63.08;;;58.03;;
20802;SDS011;10562;-33.856;151.182;2023-05-14T08:59:13;66.80;;;61.28;;
20802;SDS011;10562;-33.856;151.182;2023-05-14T09:01:45;67.00;;;61.92;;
20802;SDS011;10562;-33.856;151.182;2023-05-14T09:04:18;70.72;;;65.32;;
20802;SDS011;10562;-33.856;151.182;2023-05-14T09:06:49;72.68;;;66.97;;
20802;SDS011;10562;-33.856;151.182;2023-05-14T09:09:21;78.78;;;72.95;;
20802;SDS011;10562;-33.856;151.182;2023-05-14T09:11:53;73.43;;;67.53;;
20802;SDS011;10562;-33.856;151.182;2023-05-14T09:14:24;82.47;;;75.85;;
20802;SDS011;10562;-33.856;151.182;2023-05-14T09:16:55;76.57;;;70.30;;
20802;SDS011;10562;-33.856;151.182;2023-05-14T09:19:26;73.75;;;68.00;;
20802;SDS011;10562;-33.856;151.182;2023-05-14T09:21:57;79.00;;;72.95;;
20802;SDS011;10562;-33.856;151.182;2023-05-14T09:24:28;79.38;;;73.28;;
20802;SDS011;10562;-33.856;151.182;2023-05-14T09:27:01;84.85;;;78.45;;
20802;SDS011;10562;-33.856;151.182;2023-05-14T09:29:32;83.45;;;77.18;;
20802;SDS011;10562;-33.856;151.182;2023-05-14T09:32:03;85.20;;;78.70;;
20802;SDS011;10562;-33.856;151.182;2023-05-14T09:34:36;89.75;;;83.07;;
20802;SDS011;10562;-33.856;151.182;2023-05-14T09:37:08;88.63;;;81.85;;
20802;SDS011;10562;-33.856;151.182;2023-05-14T09:39:39;96.13;;;88.93;;
20802;SDS011;10562;-33.856;151.182;2023-05-14T09:42:12;98.57;;;90.93;;
20802;SDS011;10562;-33.856;151.182;2023-05-14T09:44:44;97.85;;;90.20;;
20802;SDS011;10562;-33.856;151.182;2023-05-14T09:47:15;101.05;;;93.30;;
20802;SDS011;10562;-33.856;151.182;2023-05-14T09:49:47;107.93;;;99.82;;
20802;SDS011;10562;-33.856;151.182;2023-05-14T09:52:18;112.05;;;103.30;;
20802;SDS011;10562;-33.856;151.182;2023-05-14T09:54:51;109.78;;;101.63;;
20802;SDS011;10562;-33.856;151.182;2023-05-14T09:57:24;108.38;;;100.22;;
20802;SDS011;10562;-33.856;151.182;2023-05-14T09:59:54;115.03;;;106.53;;
20802;SDS011;10562;-33.856;151.182;2023-05-14T10:02:25;116.30;;;107.60;;
20802;SDS011;10562;-33.856;151.182;2023-05-14T10:05:02;109.18;;;101.03;;
20802;SDS011;10562;-33.856;151.182;2023-05-14T10:07:35;112.30;;;104.10;;
20802;SDS011;10562;-33.856;151.182;2023-05-14T10:10:11;117.47;;;108.78;;
20802;SDS011;10562;-33.856;151.182;2023-05-14T10:12:47;116.40;;;107.95;;
20802;SDS011;10562;-33.856;151.182;2023-05-14T10:15:21;117.47;;;108.93;;
20802;SDS011;10562;-33.856;151.182;2023-05-14T10:18:00;123.10;;;114.15;;
20802;SDS011;10562;-33.856;151.182;2023-05-14T10:20:38;123.75;;;114.85;;
20802;SDS011;10562;-33.856;151.182;2023-05-14T10:23:09;116.00;;;107.40;;
20802;SDS011;10562;-33.856;151.182;2023-05-14T10:25:40;114.05;;;105.63;;
20802;SDS011;10562;-33.856;151.182;2023-05-14T10:28:13;120.45;;;111.82;;
20802;SDS011;10562;-33.856;151.182;2023-05-14T10:30:44;118.75;;;109.85;;
20802;SDS011;10562;-33.856;151.182;2023-05-14T10:33:15;121.25;;;112.43;;
20802;SDS011;10562;-33.856;151.182;2023-05-14T10:35:56;121.55;;;112.45;;
20802;SDS011;10562;-33.856;151.182;2023-05-14T10:38:29;116.38;;;107.95;;
20802;SDS011;10562;-33.856;151.182;2023-05-14T10:41:03;115.07;;;106.90;;
20802;SDS011;10562;-33.856;151.182;2023-05-14T10:43:37;113.07;;;104.80;;
20802;SDS011;10562;-33.856;151.182;2023-05-14T10:46:09;116.70;;;108.53;;
20802;SDS011;10562;-33.856;151.182;2023-05-14T10:48:40;115.38;;;107.13;;
20802;SDS011;10562;-33.856;151.182;2023-05-14T10:51:12;118.78;;;110.28;;
20802;SDS011;10562;-33.856;151.182;2023-05-14T10:53:45;117.97;;;109.35;;
20802;SDS011;10562;-33.856;151.182;2023-05-14T10:56:17;125.30;;;116.22;;
20802;SDS011;10562;-33.856;151.182;2023-05-14T10:58:50;117.22;;;108.78;;
20802;SDS011;10562;-33.856;151.182;2023-05-14T11:01:26;127.00;;;117.95;;
20802;SDS011;10562;-33.856;151.182;2023-05-14T11:03:57;128.02;;;119.00;;
20802;SDS011;10562;-33.856;151.182;2023-05-14T11:06:31;125.82;;;117.00;;
20802;SDS011;10562;-33.856;151.182;2023-05-14T11:09:02;128.38;;;119.32;;
20802;SDS011;10562;-33.856;151.182;2023-05-14T11:11:34;133.43;;;123.78;;
20802;SDS011;10562;-33.856;151.182;2023-05-14T11:14:07;126.30;;;116.75;;
20802;SDS011;10562;-33.856;151.182;2023-05-14T11:16:38;129.35;;;119.95;;
20802;SDS011;10562;-33.856;151.182;2023-05-14T11:19:10;131.10;;;121.57;;
20802;SDS011;10562;-33.856;151.182;2023-05-14T11:21:40;130.85;;;121.30;;
20802;SDS011;10562;-33.856;151.182;2023-05-14T11:24:11;141.15;;;130.82;;
20802;SDS011;10562;-33.856;151.182;2023-05-14T11:26:42;137.88;;;127.95;;
20802;SDS011;10562;-33.856;151.182;2023-05-14T11:29:15;145.02;;;134.43;;
20802;SDS011;10562;-33.856;151.182;2023-05-14T11:31:46;146.75;;;136.35;;
20802;SDS011;10562;-33.856;151.182;2023-05-14T11:34:18;148.45;;;137.80;;
20802;SDS011;10562;-33.856;151.182;2023-05-14T11:36:48;155.57;;;144.35;;
20802;SDS011;10562;-33.856;151.182;2023-05-14T11:39:19;152.00;;;141.27;;
20802;SDS011;10562;-33.856;151.182;2023-05-14T11:41:50;152.60;;;141.80;;
20802;SDS011;10562;-33.856;151.182;2023-05-14T11:44:23;157.43;;;146.20;;
20802;SDS011;10562;-33.856;151.182;2023-05-14T11:46:54;153.80;;;142.65;;
20802;SDS011;10562;-33.856;151.182;2023-05-14T11:49:26;154.60;;;143.35;;
20802;SDS011;10562;-33.856;151.182;2023-05-14T11:51:57;162.30;;;150.75;;
20802;SDS011;10562;-33.856;151.182;2023-05-14T11:54:29;167.13;;;154.95;;
20802;SDS011;10562;-33.856;151.182;2023-05-14T11:57:02;163.80;;;152.13;;
20802;SDS011;10562;-33.856;151.182;2023-05-14T11:59:40;164.82;;;153.00;;
20802;SDS011;10562;-33.856;151.182;2023-05-14T12:02:12;163.02;;;151.32;;
20802;SDS011;10562;-33.856;151.182;2023-05-14T12:04:48;159.95;;;147.40;;
20802;SDS011;10562;-33.856;151.182;2023-05-14T12:07:19;167.02;;;154.93;;
20802;SDS011;10562;-33.856;151.182;2023-05-14T12:09:50;173.27;;;160.95;;
20802;SDS011;10562;-33.856;151.182;2023-05-14T12:12:21;176.90;;;163.70;;
20802;SDS011;10562;-33.856;151.182;2023-05-14T12:14:53;186.60;;;173.25;;
20802;SDS011;10562;-33.856;151.182;2023-05-14T12:17:27;189.25;;;175.57;;
20802;SDS011;10562;-33.856;151.182;2023-05-14T12:19:58;173.80;;;159.88;;
20802;SDS011;10562;-33.856;151.182;2023-05-14T12:22:29;197.63;;;183.73;;
20802;SDS011;10562;-33.856;151.182;2023-05-14T12:25:00;121.85;;;113.25;;
20802;SDS011;10562;-33.856;151.182;2023-05-14T12:27:31;171.05;;;158.73;;
20802;SDS011;10562;-33.856;151.182;2023-05-14T12:30:07;186.20;;;172.85;;
20802;SDS011;10562;-33.856;151.182;2023-05-14T12:32:39;186.82;;;173.25;;
20802;SDS011;10562;-33.856;151.182;2023-05-14T12:35:11;178.80;;;163.70;;
20802;SDS011;10562;-33.856;151.182;2023-05-14T12:37:41;197.45;;;183.35;;
20802;SDS011;10562;-33.856;151.182;2023-05-14T12:40:12;193.98;;;180.00;;
20802;SDS011;10562;-33.856;151.182;2023-05-14T12:42:43;196.65;;;182.55;;
20802;SDS011;10562;-33.856;151.182;2023-05-14T12:45:15;195.75;;;181.48;;
20802;SDS011;10562;-33.856;151.182;2023-05-14T12:47:46;204.35;;;189.48;;
20802;SDS011;10562;-33.856;151.182;2023-05-14T12:50:17;189.00;;;172.98;;
20802;SDS011;10562;-33.856;151.182;2023-05-14T12:52:48;206.25;;;191.55;;
20802;SDS011;10562;-33.856;151.182;2023-05-14T12:55:19;205.05;;;190.60;;
20802;SDS011;10562;-33.856;151.182;2023-05-14T12:57:50;209.02;;;194.10;;
20802;SDS011;10562;-33.856;151.182;2023-05-14T13:00:22;202.60;;;187.88;;
20802;SDS011;10562;-33.856;151.182;2023-05-14T13:02:53;193.90;;;179.98;;
20802;SDS011;10562;-33.856;151.182;2023-05-14T13:05:24;209.05;;;193.95;;
20802;SDS011;10562;-33.856;151.182;2023-05-14T13:07:57;210.07;;;195.18;;
20802;SDS011;10562;-33.856;151.182;2023-05-14T13:10:29;208.18;;;192.68;;
20802;SDS011;10562;-33.856;151.182;2023-05-14T13:12:59;211.60;;;196.25;;
20802;SDS011;10562;-33.856;151.182;2023-05-14T13:15:32;218.77;;;203.23;;
20802;SDS011;10562;-33.856;151.182;2023-05-14T13:18:04;211.57;;;196.40;;
20802;SDS011;10562;-33.856;151.182;2023-05-14T13:20:35;226.30;;;210.15;;
20802;SDS011;10562;-33.856;151.182;2023-05-14T13:23:06;219.70;;;204.20;;
20802;SDS011;10562;-33.856;151.182;2023-05-14T13:25:36;218.73;;;202.68;;
20802;SDS011;10562;-33.856;151.182;2023-05-14T13:28:07;232.57;;;216.23;;
20802;SDS011;10562;-33.856;151.182;2023-05-14T13:30:40;223.10;;;207.38;;
20802;SDS011;10562;-33.856;151.182;2023-05-14T13:33:30;231.82;;;215.05;;
20802;SDS011;10562;-33.856;151.182;2023-05-14T13:36:02;230.68;;;214.43;;
20802;SDS011;10562;-33.856;151.182;2023-05-14T13:38:35;224.88;;;208.82;;
20802;SDS011;10562;-33.856;151.182;2023-05-14T13:41:06;230.48;;;213.60;;
20802;SDS011;10562;-33.856;151.182;2023-05-14T13:43:36;234.32;;;217.60;;
20802;SDS011;10562;-33.856;151.182;2023-05-14T13:46:09;228.13;;;211.93;;
20802;SDS011;10562;-33.856;151.182;2023-05-14T13:48:40;231.18;;;214.63;;
20802;SDS011;10562;-33.856;151.182;2023-05-14T13:51:11;235.70;;;218.98;;
20802;SDS011;10562;-33.856;151.182;2023-05-14T13:53:41;239.57;;;222.63;;
20802;SDS011;10562;-33.856;151.182;2023-05-14T13:56:12;230.98;;;214.45;;
20802;SDS011;10562;-33.856;151.182;2023-05-14T13:58:43;244.80;;;227.10;;
20802;SDS011;10562;-33.856;151.182;2023-05-14T14:01:16;238.20;;;220.98;;
20802;SDS011;10562;-33.856;151.182;2023-05-14T14:03:47;239.52;;;222.13;;
20802;SDS011;10562;-33.856;151.182;2023-05-14T14:06:17;238.55;;;221.00;;
20802;SDS011;10562;-33.856;151.182;2023-05-14T14:08:48;239.68;;;222.38;;
20802;SDS011;10562;-33.856;151.182;2023-05-14T14:11:19;227.77;;;209.18;;